Mojave, CA

2:52 PM PST on February 21, 2017 (GMT -0800)
Mojave

Weather History for KMHV - February, 2014

Change the Weather History Date:

Thursday, February 27, 2014

  Actual Average Record
Temperature  
Mean Temperature 57 °F -  
Max Temperature 64 °F 63 °F 81 °F (1986)
Min Temperature 50 °F 37 °F 21 °F (1971)
Degree Days  
Heating Degree Days 8    
Growing Degree Days 7 (Base 50)    
Moisture  
Dew Point 36 °F    
Average Humidity 54    
Maximum Humidity 87    
Minimum Humidity 18    
Precipitation  
Precipitation 0.00 in - - ()
Sea Level Pressure  
Sea Level Pressure 29.90 in    
Wind  
Wind Speed 14 mph (SW)    
Max Wind Speed 24 mph    
Max Gust Speed 31 mph    
Visibility 10 miles    
Events      
Averages and records for this station are not official NWS values.
T = Trace of Precipitation, MM = Missing Value Source: NWS Daily Summary

Daily Weather History Graph

Daily Weather History Graph

Search for Another Location

Airport or City:

Trip Planner

Search our weather history database for the weather conditions in past years. The results will help you decide how hot, cold, wet, or windy it might be!

Date:

Astronomy

Feb. 27, 2014 Rise Set
Actual Time 6:24 AM PST 5:46 PM PST
Civil Twilight 5:59 AM PST 6:12 PM PST
Nautical Twilight 5:29 AM PST 6:41 PM PST
Astronomical Twilight 5:00 AM PST 7:10 PM PST
Moon 4:57 AM PST (2/27) 4:19 PM PST (2/27)
Length of Visible Light 12h 13m
Length of Day
11h 22m
Waning Crescent, 3% of the Moon is Illuminated
Feb 27
Waning Crescent
Mar 1
New
Mar 8
First Quarter
Mar 16
Full
Mar 23
Last Quarter

Hourly Weather History & Observations

Time (PST) Temp. Dew Point Humidity Pressure Visibility Wind Dir Wind Speed Gust Speed Precip Events Conditions
12:15 AM 50.0 °F 46.4 °F 87% 29.94 in 10.0 mi SW 13.8 mph - N/A   Scattered Clouds
12:35 AM 51.8 °F 46.4 °F 82% 29.94 in 10.0 mi SW 15.0 mph 20.7 mph N/A   Mostly Cloudy
12:55 AM 50.0 °F 46.4 °F 87% 29.93 in 10.0 mi SW 12.7 mph 20.7 mph N/A   Overcast
1:15 AM 50.0 °F 46.4 °F 87% 29.92 in 10.0 mi SSW 19.6 mph 24.2 mph N/A   Mostly Cloudy
1:35 AM 51.8 °F 46.4 °F 82% 29.92 in 10.0 mi SSW 19.6 mph 26.5 mph N/A   Mostly Cloudy
1:55 AM 50.0 °F 46.4 °F 87% 29.92 in 10.0 mi SW 19.6 mph 25.3 mph N/A   Scattered Clouds
2:15 AM 51.8 °F 44.6 °F 76% 29.90 in 10.0 mi SSW 19.6 mph 29.9 mph N/A   Scattered Clouds
2:35 AM 50.0 °F 46.4 °F 87% 29.90 in 10.0 mi SSW 20.7 mph 31.1 mph N/A   Scattered Clouds
2:55 AM 50.0 °F 46.4 °F 87% 29.89 in 10.0 mi SSW 24.2 mph 27.6 mph N/A   Mostly Cloudy
3:15 AM 50.0 °F 46.4 °F 87% 29.90 in 7.0 mi SW 17.3 mph 25.3 mph N/A   Mostly Cloudy
3:35 AM 50.0 °F 46.4 °F 87% 29.90 in 10.0 mi SW 16.1 mph 20.7 mph N/A   Mostly Cloudy
3:55 AM 50.0 °F 46.4 °F 87% 29.89 in 10.0 mi SSW 15.0 mph 20.7 mph N/A   Overcast
4:15 AM 50.0 °F 46.4 °F 87% 29.91 in 10.0 mi SW 13.8 mph - N/A   Overcast
4:35 AM 50.0 °F 44.6 °F 82% 29.90 in 10.0 mi SSW 13.8 mph - N/A   Overcast
4:55 AM 50.0 °F 44.6 °F 82% 29.90 in 10.0 mi SW 15.0 mph - N/A   Mostly Cloudy
5:15 AM 50.0 °F 46.4 °F 87% 29.91 in 10.0 mi SW 12.7 mph - N/A   Mostly Cloudy
5:35 AM 50.0 °F 44.6 °F 82% 29.92 in 10.0 mi WSW 9.2 mph - N/A   Overcast
5:55 AM 50.0 °F 42.8 °F 76% 29.93 in 10.0 mi WSW 11.5 mph 16.1 mph N/A   Mostly Cloudy
6:15 AM 50.0 °F 41.0 °F 71% 29.94 in 10.0 mi West 13.8 mph 27.6 mph N/A   Overcast
6:35 AM 50.0 °F 41.0 °F 71% 29.94 in 10.0 mi West 10.4 mph - N/A   Mostly Cloudy
6:55 AM 50.0 °F 39.2 °F 66% 29.94 in 10.0 mi WSW 9.2 mph - N/A   Partly Cloudy
7:15 AM 50.0 °F 39.2 °F 66% 29.95 in 10.0 mi SW 9.2 mph - N/A   Clear
7:35 AM 51.8 °F 39.2 °F 62% 29.96 in 10.0 mi WSW 8.1 mph - N/A   Scattered Clouds
7:55 AM 53.6 °F 39.2 °F 58% 29.97 in 10.0 mi West 12.7 mph - N/A   Partly Cloudy
8:15 AM 53.6 °F 39.2 °F 58% 29.98 in 10.0 mi West 15.0 mph 20.7 mph N/A   Clear
8:35 AM 53.6 °F 39.2 °F 58% 29.98 in 10.0 mi West 16.1 mph 23.0 mph N/A   Clear
8:55 AM 55.4 °F 37.4 °F 51% 29.99 in 10.0 mi West 13.8 mph 21.9 mph N/A   Clear
9:15 AM 55.4 °F 35.6 °F 47% 29.99 in 10.0 mi West 13.8 mph 18.4 mph N/A   Clear
9:35 AM 57.2 °F 35.6 °F 44% 29.99 in 10.0 mi WSW 10.4 mph 18.4 mph N/A   Clear
9:55 AM 55.4 °F 37.4 °F 51% 29.99 in 10.0 mi SSW 10.4 mph - N/A   Clear
10:15 AM 57.2 °F 32.0 °F 38% 29.99 in 10.0 mi SW 16.1 mph 23.0 mph N/A   Partly Cloudy
10:35 AM 59.0 °F 32.0 °F 36% 29.98 in 10.0 mi WSW 11.5 mph 21.9 mph N/A   Clear
10:55 AM 59.0 °F 32.0 °F 36% 29.98 in 10.0 mi WSW 9.2 mph 20.7 mph N/A   Clear
11:15 AM 59.0 °F 30.2 °F 34% 29.97 in 10.0 mi WSW 9.2 mph - N/A   Clear
11:35 AM 60.8 °F 28.4 °F 29% 29.97 in 10.0 mi SW 10.4 mph - N/A   Clear
11:55 AM 59.0 °F 33.8 °F 39% 29.95 in 10.0 mi SSW 10.4 mph - N/A   Clear
12:15 PM 62.6 °F 35.6 °F 37% 29.94 in 10.0 mi SSW 13.8 mph 23.0 mph N/A   Clear
12:35 PM 62.6 °F 32.0 °F 32% 29.94 in 10.0 mi SW 10.4 mph 18.4 mph N/A   Clear
12:55 PM 62.6 °F 32.0 °F 32% 29.92 in 10.0 mi West 15.0 mph 18.4 mph N/A   Clear
1:15 PM 64.4 °F 28.4 °F 26% 29.92 in 10.0 mi WSW 15.0 mph 20.7 mph N/A   Clear
1:35 PM 64.4 °F 24.8 °F 22% 29.91 in 10.0 mi West 17.3 mph 24.2 mph N/A   Clear
1:55 PM 64.4 °F 24.8 °F 22% 29.90 in 10.0 mi West 17.3 mph 23.0 mph N/A   Clear
2:15 PM 64.4 °F 23.0 °F 21% 29.90 in 10.0 mi West 12.7 mph - N/A   Clear
2:35 PM 64.4 °F 19.4 °F 18% 29.89 in 10.0 mi West 19.6 mph 26.5 mph N/A   Clear
2:55 PM 64.4 °F 21.2 °F 19% 29.89 in 10.0 mi West 13.8 mph - N/A   Clear
3:15 PM 64.4 °F 19.4 °F 18% 29.88 in 10.0 mi West 17.3 mph 23.0 mph N/A   Clear
3:35 PM 64.4 °F 19.4 °F 18% 29.87 in 10.0 mi West 17.3 mph - N/A   Clear
3:55 PM 64.4 °F 23.0 °F 21% 29.86 in 10.0 mi West 17.3 mph 23.0 mph N/A   Clear
4:15 PM 62.6 °F 24.8 °F 24% 29.85 in 10.0 mi West 17.3 mph - N/A   Clear
4:35 PM 62.6 °F 24.8 °F 24% 29.84 in 10.0 mi WNW 12.7 mph - N/A   Clear
4:55 PM 62.6 °F 24.8 °F 24% 29.83 in 10.0 mi West 15.0 mph - N/A   Clear
5:15 PM 60.8 °F 24.8 °F 25% 29.83 in 10.0 mi West 11.5 mph 16.1 mph N/A   Clear
5:35 PM 59.0 °F 26.6 °F 29% 29.82 in 10.0 mi West 11.5 mph - N/A   Clear
5:55 PM 57.2 °F 24.8 °F 29% 29.82 in 10.0 mi WSW 10.4 mph - N/A   Clear
6:15 PM 55.4 °F 24.8 °F 31% 29.83 in 10.0 mi WSW 10.4 mph - N/A   Clear
6:35 PM 55.4 °F 26.6 °F 33% 29.83 in 10.0 mi SSW 9.2 mph - N/A   Clear
6:55 PM 55.4 °F 39.2 °F 54% 29.83 in 10.0 mi SSW 11.5 mph - N/A   Clear
7:15 PM 53.6 °F 41.0 °F 62% 29.83 in 10.0 mi SSW 8.1 mph - N/A   Clear
7:35 PM 53.6 °F 41.0 °F 62% 29.82 in 10.0 mi SSW 13.8 mph - N/A   Clear
7:55 PM 53.6 °F 39.2 °F 58% 29.84 in 10.0 mi SSW 12.7 mph - N/A   Unknown
8:15 PM 53.6 °F 39.2 °F 58% 29.85 in 10.0 mi South 9.2 mph - N/A   Unknown
8:35 PM 53.6 °F 39.2 °F 58% 29.84 in 10.0 mi SSE 12.7 mph - N/A   Clear
8:55 PM 53.6 °F 39.2 °F 58% 29.84 in 10.0 mi SSW 9.2 mph - N/A   Clear
9:15 PM 53.6 °F 41.0 °F 62% 29.85 in 10.0 mi SSW 10.4 mph - N/A   Clear
9:35 PM 51.8 °F 41.0 °F 67% 29.85 in 10.0 mi SSW 15.0 mph 19.6 mph N/A   Clear
9:55 PM 51.8 °F 41.0 °F 67% 29.85 in 10.0 mi SSW 16.1 mph - N/A   Clear
10:15 PM 51.8 °F 39.2 °F 62% 29.85 in 10.0 mi SSW 15.0 mph 20.7 mph N/A   Partly Cloudy
10:35 PM 51.8 °F 39.2 °F 62% 29.85 in 10.0 mi SW 16.1 mph - N/A   Partly Cloudy
10:55 PM 53.6 °F 39.2 °F 58% 29.85 in 10.0 mi WSW 11.5 mph - N/A   Clear
11:15 PM 53.6 °F 39.2 °F 58% 29.85 in 10.0 mi SW 12.7 mph - N/A   Clear
11:35 PM 53.6 °F 32.0 °F 44% 29.85 in 10.0 mi SSW 13.8 mph - N/A   Clear
11:55 PM 53.6 °F 32.0 °F 44% 29.85 in 10.0 mi SSW 11.5 mph - N/A   Scattered Clouds